WetterOnline ( https://www.wetteronline.de )

Wetter aktuell Tamm

Aktuelles Wetter: Schnarrenberg/Stuttgart (315m)

6-stündlich | Neueste Meldungen
Ortszeit Temperatur Wetter
Do, 26.05. 8:00 14.6° C leicht bewölkt
Do, 26.05. 2:00 14.4° C wolkig
Mi, 25.05. 20:00 19.1° C leicht bewölkt
Mi, 25.05. 14:00 19.2° C leicht bewölkt
Mi, 25.05. 8:00 13.4° C wolkig
Mi, 25.05. 2:00 13.9° C bewölkt
Di, 24.05. 20:00 17.4° C bewölkt
Di, 24.05. 14:00 18.2° C wolkig
Ortszeit Temperatur Wetter
Do, 26.05. 13:00 17.2° C bedeckt
Do, 26.05. 12:50 17.2° C bedeckt
Do, 26.05. 12:40 17.3° C bedeckt
Do, 26.05. 12:30 17.1° C bedeckt
Do, 26.05. 12:20 17.1° C bedeckt
Do, 26.05. 12:10 17.2° C bedeckt
Do, 26.05. 12:00 17.2° C bedeckt
Do, 26.05. 11:30 17.3° C bedeckt
Do, 26.05. 11:00 16.7° C bedeckt
Do, 26.05. 10:30 16.2° C bedeckt
Do, 26.05. 10:00 16.5° C bedeckt
Ortszeit Relative Feuchte Sichtweite
Do, 26.05. 8:00 61% >70 km
Do, 26.05. 2:00 59% >70 km
Mi, 25.05. 20:00 42% >70 km
Mi, 25.05. 14:00 40% >70 km
Mi, 25.05. 8:00 65% >70 km
Mi, 25.05. 2:00 69% >70 km
Di, 24.05. 20:00 51% >70 km
Di, 24.05. 14:00 51% >70 km
Ortszeit Relative Feuchte Sichtweite
Do, 26.05. 13:00 56% 60 km
Do, 26.05. 12:50 56% -
Do, 26.05. 12:40 54% -
Do, 26.05. 12:30 55% >70 km
Do, 26.05. 12:20 55% -
Do, 26.05. 12:10 56% -
Do, 26.05. 12:00 56% 55 km
Do, 26.05. 11:30 56% >70 km
Do, 26.05. 11:00 56% >70 km
Do, 26.05. 10:30 56% >70 km
Do, 26.05. 10:00 55% >70 km
Ortszeit Niederschlagsmenge Niederschlagsart
Do, 26.05. 8:00 0.0 l/m2 in 12 Std. -
Do, 26.05. 2:00 0.0 l/m2 in 6 Std. -
Mi, 25.05. 20:00 0.0 l/m2 in 12 Std. -
Mi, 25.05. 14:00 0.1 l/m2 in 6 Std. Sprühregen
Mi, 25.05. 8:00 0.1 l/m2 in 12 Std. -
Mi, 25.05. 2:00 0.1 l/m2 in 6 Std. Regen
Di, 24.05. 20:00 1 l/m2 in 12 Std. -
Di, 24.05. 14:00 1 l/m2 in 6 Std. Regen
Ortszeit Niederschlagsmenge Niederschlagsart
Do, 26.05. 13:00 0.0 l/m2 in 1 Std. -
Do, 26.05. 12:50 keine Meldung -
Do, 26.05. 12:40 keine Meldung -
Do, 26.05. 12:30 0.0 l/m2 in 1 Std. -
Do, 26.05. 12:20 keine Meldung -
Do, 26.05. 12:10 keine Meldung -
Do, 26.05. 12:00 0.0 l/m2 in 1 Std. -
Do, 26.05. 11:30 0.0 l/m2 in 1 Std. -
Do, 26.05. 11:00 0.0 l/m2 in 1 Std. -
Do, 26.05. 10:30 0.0 l/m2 in 1 Std. -
Do, 26.05. 10:00 0.0 l/m2 in 1 Std. -
Ortszeit Stärke Spitze Richtung
km/h Bft. km/h Grad Sektor
Do, 26.05. 8:00 7 2 22 220° SW
Do, 26.05. 2:00 9 2 33 270° W
Mi, 25.05. 20:00 18 3 36 310° NW
Mi, 25.05. 14:00 7 2 29 290° W
Mi, 25.05. 8:00 9 2 17 280° W
Mi, 25.05. 2:00 7 2 22 260° W
Di, 24.05. 20:00 13 3 37 310° NW
Di, 24.05. 14:00 18 3 65 300° NW
Ortszeit Stärke Spitze Richtung
km/h Bft. km/h Grad Sektor
Do, 26.05. 13:00 11 2 22 260° W
Do, 26.05. 12:50 11 2 - 260° W
Do, 26.05. 12:40 11 2 - 260° W
Do, 26.05. 12:30 11 2 18 270° W
Do, 26.05. 12:20 11 2 - 270° W
Do, 26.05. 12:10 7 2 - 270° W
Do, 26.05. 12:00 9 2 19 290° W
Do, 26.05. 11:30 9 2 19 280° W
Do, 26.05. 11:00 11 2 29 260° W
Do, 26.05. 10:30 13 3 28 260° W
Do, 26.05. 10:00 15 3 24 260° W
Ortszeit Untergrenze Bedeckung Gattung
total tief tief mittel hoch
Do, 26.05. 8:00 1800 m 3/8 3/8 - - -
Do, 26.05. 2:00 1800 m 6/8 5/8 - - -
Mi, 25.05. 20:00 9000 m 4/8 0/8 - - -
Mi, 25.05. 14:00 1500 m 4/8 4/8 - - -
Mi, 25.05. 8:00 2100 m 8/8 1/8 - - -
Mi, 25.05. 2:00 1500 m 8/8 6/8 - - -
Di, 24.05. 20:00 1500 m 7/8 7/8 - - -
Di, 24.05. 14:00 1260 m 5/8 5/8 - - -
Ortszeit Bedeckungsgrad in Achtel und Wolkenuntergrenze
Do, 26.05. 13:00 4(1230m) 8(1500m)
Do, 26.05. 12:50 4(1230m) 8(1500m)
Do, 26.05. 12:40 8
Do, 26.05. 12:30 4(1230m) 8(1500m)
Do, 26.05. 12:20 4(1230m) 8(1500m)
Do, 26.05. 12:10 8
Do, 26.05. 12:00 5(1230m) 6(1470m) 8(1500m)
Do, 26.05. 11:30 4(1200m) 8(1500m)
Do, 26.05. 11:00 3(1260m) 8(1500m)
Do, 26.05. 10:30 3(1410m) 8(1500m)
Do, 26.05. 10:00 8(1800m)
Ortszeit Luftdruck NN (hPa) Tendenz (hPa in 3 Std.)
Do, 26.05. 8:00 1023 + 1,3
Do, 26.05. 2:00 1022 + 1,0
Mi, 25.05. 20:00 1018 + 1,0
Mi, 25.05. 14:00 1017 + 0,1
Mi, 25.05. 8:00 1017 + 2,0
Mi, 25.05. 2:00 1014 + 1,0
Di, 24.05. 20:00 1011 + 1,0
Di, 24.05. 14:00 1009 + 0,5
Ortszeit Luftdruck NN (hPa) Tendenz (hPa in 3 Std.)
Do, 26.05. 13:00 1024 + 0,8
Do, 26.05. 12:50 1024 keine Meldung
Do, 26.05. 12:40 1024 keine Meldung
Do, 26.05. 12:30 1024 + 0,9
Do, 26.05. 12:20 1024 keine Meldung
Do, 26.05. 12:10 1024 keine Meldung
Do, 26.05. 12:00 1024 + 1,1
Do, 26.05. 11:30 1024 + 1,1
Do, 26.05. 11:00 1024 + 1,3
Do, 26.05. 10:30 1024 + 1,4
Do, 26.05. 10:00 1024 + 1,3
Ortszeit Schneehöhe (cm)
Do, 26.05. 8:00 0
Do, 26.05. 2:00 0
Mi, 25.05. 20:00 0
Mi, 25.05. 14:00 0
Mi, 25.05. 8:00 0
Mi, 25.05. 2:00 0
Di, 24.05. 20:00 0
Di, 24.05. 14:00 0
Ortszeit Schneehöhe (cm)
Do, 26.05. 13:00 0
Do, 26.05. 12:50 0
Do, 26.05. 12:40 0
Do, 26.05. 12:30 0
Do, 26.05. 12:20 0
Do, 26.05. 12:10 0
Do, 26.05. 12:00 0
Do, 26.05. 11:30 0
Do, 26.05. 11:00 0
Do, 26.05. 10:30 0
Do, 26.05. 10:00 0
Link zu dieser Seite / Seite empfehlen

Das Wetter in ...